Time;durP1;ratioP1;P1;durP2;ratioP2;P2;SDS_P1;SDS_P2;PMS_P1;PMS_P2;Temp;Humidity;BMP_temperature;BMP_pressure;BME280_temperature;BME280_humidity;BME280_pressure;Samples;Min_cycle;Max_cycle;Signal;HPM_P1;HPM_P2
2024/01/30 00:01:00;;;;;;;12.00;10.00;;;6.60;99.90;;;;;;3114515;28;20021;-84
2024/01/30 00:02:32;;;;;;;9.93;8.93;;;6.60;99.90;;;;;;3110764;28;20049;-85
2024/01/30 00:04:03;;;;;;;15.90;12.18;;;6.60;99.90;;;;;;3094252;28;20037;-85
2024/01/30 00:05:35;;;;;;;11.23;10.02;;;6.50;99.90;;;;;;3102800;28;20033;-85
2024/01/30 00:07:05;;;;;;;10.23;8.82;;;6.50;99.90;;;;;;3095164;28;20031;-88
2024/01/30 00:08:36;;;;;;;9.45;8.65;;;6.50;99.90;;;;;;3094675;28;20037;-85
2024/01/30 00:10:07;;;;;;;10.68;9.15;;;6.50;99.90;;;;;;3082811;28;20138;-88
2024/01/30 00:11:38;;;;;;;11.13;8.82;;;6.50;99.90;;;;;;3091309;28;20098;-85
2024/01/30 00:13:09;;;;;;;13.82;8.63;;;6.50;99.90;;;;;;3094718;28;20046;-85
2024/01/30 00:14:43;;;;;;;10.07;8.85;;;6.50;99.90;;;;;;3114703;28;20049;-85
2024/01/30 00:16:24;;;;;;;9.43;8.52;;;6.60;99.90;;;;;;3105660;28;20857;-85
2024/01/30 00:17:55;;;;;;;9.07;8.20;;;6.50;99.90;;;;;;3086786;28;20420;-85
2024/01/30 00:19:26;;;;;;;8.93;8.13;;;6.50;99.90;;;;;;3098947;28;20030;-86
2024/01/30 00:20:57;;;;;;;12.23;8.90;;;6.50;99.90;;;;;;3107157;28;20057;-85
2024/01/30 00:22:30;;;;;;;9.10;7.80;;;6.50;99.90;;;;;;3106824;28;20057;-85
2024/01/30 00:24:01;;;;;;;10.55;7.15;;;6.50;99.90;;;;;;3097740;28;20570;-85
2024/01/30 00:25:33;;;;;;;13.07;7.75;;;6.40;99.90;;;;;;3106499;28;20084;-85
2024/01/30 00:27:04;;;;;;;11.32;7.03;;;6.40;99.90;;;;;;3107401;28;20033;-85
2024/01/30 00:28:35;;;;;;;8.52;7.40;;;6.40;99.90;;;;;;3106686;28;20030;-85
2024/01/30 00:30:06;;;;;;;9.90;8.55;;;6.40;99.90;;;;;;3106698;28;20053;-88
2024/01/30 00:31:37;;;;;;;8.63;7.82;;;6.40;99.90;;;;;;3107181;28;20025;-85
2024/01/30 00:33:09;;;;;;;8.38;7.50;;;6.30;99.90;;;;;;3106769;28;20072;-90
2024/01/30 00:34:41;;;;;;;7.82;7.18;;;6.30;99.90;;;;;;3106426;28;20034;-86
2024/01/30 00:36:12;;;;;;;7.70;6.93;;;6.30;99.90;;;;;;3098545;28;20042;-87
2024/01/30 00:37:43;;;;;;;8.05;6.88;;;6.30;99.90;;;;;;3086836;28;20028;-85
2024/01/30 00:39:15;;;;;;;10.65;8.95;;;6.30;99.90;;;;;;3090863;28;20033;-85
2024/01/30 00:40:46;;;;;;;9.65;8.20;;;6.40;99.90;;;;;;3090368;28;20043;-85
2024/01/30 00:42:17;;;;;;;8.25;7.20;;;6.40;99.90;;;;;;3094384;28;20034;-84
2024/01/30 00:43:48;;;;;;;13.27;7.07;;;6.40;99.90;;;;;;3096234;28;20038;-85
2024/01/30 00:45:20;;;;;;;7.85;7.10;;;;;;;;;;3106570;28;20065;-85
2024/01/30 00:46:51;;;;;;;8.45;6.63;;;6.40;99.90;;;;;;3106901;28;20030;-85
2024/01/30 00:48:22;;;;;;;6.00;5.55;;;6.50;99.90;;;;;;3110950;28;20034;-85
2024/01/30 00:49:53;;;;;;;13.00;8.00;;;6.40;99.90;;;;;;3110638;28;20459;-85
2024/01/30 00:51:24;;;;;;;11.30;7.72;;;6.50;99.90;;;;;;3094823;28;20058;-85
2024/01/30 00:52:55;;;;;;;8.90;6.80;;;6.60;99.90;;;;;;3094828;28;20030;-85
2024/01/30 00:54:26;;;;;;;7.80;6.90;;;6.50;99.90;;;;;;3101020;28;20121;-84
2024/01/30 00:55:57;;;;;;;8.98;7.47;;;6.50;99.90;;;;;;3098248;28;20065;-85
2024/01/30 00:57:28;;;;;;;8.82;6.80;;;6.60;99.90;;;;;;3106900;28;20474;-84
2024/01/30 00:58:59;;;;;;;6.53;6.00;;;6.60;99.90;;;;;;3098631;28;20380;-85
2024/01/30 01:00:31;;;;;;;11.63;7.38;;;6.60;99.90;;;;;;3102041;28;20041;-85
2024/01/30 01:02:02;;;;;;;7.45;6.75;;;6.60;99.90;;;;;;3110552;28;20052;-86
2024/01/30 01:03:33;;;;;;;6.57;5.57;;;6.70;99.90;;;;;;3093089;28;20030;-86
2024/01/30 01:05:05;;;;;;;6.28;4.80;;;6.80;99.90;;;;;;3102481;28;20025;-85
2024/01/30 01:06:36;;;;;;;6.63;5.88;;;6.90;99.90;;;;;;3093986;28;20196;-85
2024/01/30 01:08:07;;;;;;;6.97;5.22;;;6.90;99.90;;;;;;3082017;28;20518;-86
2024/01/30 01:09:38;;;;;;;6.10;5.57;;;6.90;99.90;;;;;;3093964;28;20026;-85
2024/01/30 01:11:09;;;;;;;6.60;5.93;;;6.90;99.90;;;;;;3106410;28;20113;-88
2024/01/30 01:12:40;;;;;;;7.25;6.63;;;6.90;99.90;;;;;;3098238;28;20410;-87
2024/01/30 01:14:11;;;;;;;6.15;5.05;;;6.90;99.90;;;;;;3098904;28;20026;-86
2024/01/30 01:15:42;;;;;;;6.82;4.85;;;6.90;99.90;;;;;;3094272;28;20080;-85
2024/01/30 01:17:13;;;;;;;5.75;5.25;;;6.90;99.90;;;;;;3102386;28;20410;-87
2024/01/30 01:18:44;;;;;;;6.72;6.18;;;6.90;99.90;;;;;;3098349;28;20065;-85
2024/01/30 01:20:15;;;;;;;8.68;7.03;;;7.00;99.90;;;;;;3081719;28;20053;-85
2024/01/30 01:21:46;;;;;;;15.18;7.63;;;7.10;99.90;;;;;;3090243;28;20026;-85
2024/01/30 01:23:17;;;;;;;5.97;4.97;;;7.10;99.90;;;;;;3102053;28;20075;-85
2024/01/30 01:24:48;;;;;;;9.18;5.82;;;7.10;99.90;;;;;;3096892;28;20045;-85
2024/01/30 01:26:19;;;;;;;6.22;5.63;;;7.10;99.90;;;;;;3101760;28;20037;-86
2024/01/30 01:27:52;;;;;;;6.25;5.70;;;7.10;99.90;;;;;;3082021;28;20031;-85
2024/01/30 01:29:28;;;;;;;11.77;6.65;;;7.10;99.90;;;;;;3103474;28;20108;-85
2024/01/30 01:31:04;;;;;;;6.05;5.55;;;7.10;99.90;;;;;;3110431;28;20546;-85
2024/01/30 01:32:36;;;;;;;9.75;5.57;;;7.20;99.90;;;;;;3110617;28;20061;-85
2024/01/30 01:34:07;;;;;;;6.78;4.85;;;7.20;99.90;;;;;;3110696;28;20041;-85
2024/01/30 01:35:38;;;;;;;8.30;6.00;;;7.30;99.90;;;;;;3109841;28;20462;-85
2024/01/30 01:37:09;;;;;;;12.25;6.43;;;7.20;99.90;;;;;;3106145;28;20069;-90
2024/01/30 01:38:40;;;;;;;7.63;6.45;;;7.20;99.90;;;;;;3106033;28;20030;-88
2024/01/30 01:40:11;;;;;;;6.70;5.20;;;7.30;99.90;;;;;;3105829;28;20044;-88
2024/01/30 01:41:42;;;;;;;6.95;6.10;;;7.30;99.90;;;;;;3085875;28;20054;-86
2024/01/30 01:43:13;;;;;;;6.00;4.82;;;7.40;99.90;;;;;;3101919;28;20022;-86
2024/01/30 01:44:44;;;;;;;6.50;5.78;;;7.40;99.90;;;;;;3104768;28;20030;-85
2024/01/30 01:46:15;;;;;;;10.43;6.25;;;7.40;99.90;;;;;;3097642;28;20109;-85
2024/01/30 01:47:50;;;;;;;5.00;4.47;;;7.30;99.90;;;;;;3102178;28;20037;-85
2024/01/30 01:49:23;;;;;;;4.78;4.43;;;7.40;99.90;;;;;;3106319;28;20022;-85
2024/01/30 01:50:54;;;;;;;10.30;6.93;;;7.30;99.90;;;;;;3094337;28;20038;-86
2024/01/30 01:52:25;;;;;;;5.68;5.18;;;7.30;99.90;;;;;;3093455;28;20109;-85
2024/01/30 01:53:59;;;;;;;6.65;4.35;;;7.20;99.90;;;;;;3089501;28;20089;-85
2024/01/30 01:55:30;;;;;;;6.55;5.68;;;7.20;99.90;;;;;;3102549;28;20536;-85
2024/01/30 01:57:01;;;;;;;8.48;6.00;;;7.20;99.90;;;;;;3105486;28;20048;-85
2024/01/30 01:58:33;;;;;;;11.82;5.78;;;7.10;99.90;;;;;;3105541;28;20022;-85
2024/01/30 02:00:04;;;;;;;5.40;4.88;;;7.10;99.90;;;;;;3097833;28;20041;-85
2024/01/30 02:01:43;;;;;;;5.00;4.60;;;7.00;99.90;;;;;;3103146;28;20123;-85
2024/01/30 02:03:17;;;;;;;6.35;5.75;;;7.10;99.90;;;;;;3094655;28;20128;-87
2024/01/30 02:04:48;;;;;;;8.18;7.03;;;7.10;99.90;;;;;;3081065;28;20053;-85
2024/01/30 02:06:20;;;;;;;6.45;5.85;;;7.20;99.90;;;;;;3090312;28;20026;-85
2024/01/30 02:07:51;;;;;;;6.15;5.57;;;7.30;99.90;;;;;;3101998;28;20083;-86
2024/01/30 02:09:22;;;;;;;7.85;6.28;;;7.30;99.90;;;;;;3105811;28;20022;-85
2024/01/30 02:10:53;;;;;;;6.03;5.47;;;7.40;99.90;;;;;;3110479;28;20032;-85
2024/01/30 02:12:24;;;;;;;6.35;5.65;;;7.50;99.90;;;;;;3109765;28;20097;-86
2024/01/30 02:13:55;;;;;;;5.10;4.63;;;7.50;99.90;;;;;;3105060;28;20111;-85
2024/01/30 02:15:26;;;;;;;6.18;5.68;;;7.50;99.90;;;;;;3081917;28;20046;-87
2024/01/30 02:16:56;;;;;;;7.28;5.65;;;7.50;99.90;;;;;;3101754;28;20030;-85
2024/01/30 02:18:28;;;;;;;5.25;4.75;;;;;;;;;;3105516;28;20511;-85
2024/01/30 02:19:59;;;;;;;6.57;5.97;;;7.60;99.90;;;;;;3105524;28;20038;-87
2024/01/30 02:21:30;;;;;;;9.73;5.63;;;7.70;99.90;;;;;;3105799;28;20037;-85
2024/01/30 02:23:02;;;;;;;6.05;5.15;;;7.60;99.90;;;;;;3105859;28;20152;-86
2024/01/30 02:24:33;;;;;;;10.90;7.35;;;7.70;99.90;;;;;;3092820;28;20027;-85
2024/01/30 02:26:04;;;;;;;5.07;4.57;;;7.70;99.90;;;;;;3101962;28;20026;-85
2024/01/30 02:27:35;;;;;;;6.50;4.95;;;7.80;99.90;;;;;;3105453;28;20038;-85
2024/01/30 02:29:05;;;;;;;5.30;4.57;;;7.80;99.90;;;;;;3118119;28;20018;-85
2024/01/30 02:30:36;;;;;;;5.95;5.38;;;7.80;99.90;;;;;;3097369;28;20042;-85
2024/01/30 02:32:07;;;;;;;5.93;5.38;;;7.80;99.90;;;;;;3089013;28;20068;-86
2024/01/30 02:33:38;;;;;;;7.10;5.78;;;7.80;99.90;;;;;;3097992;28;20082;-85
2024/01/30 02:35:09;;;;;;;6.35;5.38;;;7.80;99.90;;;;;;3097854;28;20486;-85
2024/01/30 02:36:43;;;;;;;8.13;5.57;;;7.80;99.90;;;;;;3113706;28;20030;-86
2024/01/30 02:38:15;;;;;;;8.70;5.72;;;7.70;99.90;;;;;;3109191;28;20084;-90
2024/01/30 02:39:47;;;;;;;8.65;6.13;;;7.70;99.90;;;;;;3100228;28;20034;-85
2024/01/30 02:41:18;;;;;;;5.75;5.20;;;7.80;99.90;;;;;;3100746;28;20049;-85
2024/01/30 02:42:49;;;;;;;5.70;5.10;;;7.70;99.90;;;;;;3105019;28;20454;-85
2024/01/30 02:44:20;;;;;;;5.63;5.10;;;7.80;99.90;;;;;;3093005;28;20019;-85
2024/01/30 02:45:51;;;;;;;5.22;4.72;;;7.80;99.90;;;;;;3096928;28;20030;-85
2024/01/30 02:47:22;;;;;;;6.65;6.05;;;7.90;99.90;;;;;;3109431;28;20061;-87
2024/01/30 02:48:53;;;;;;;7.43;5.53;;;8.00;99.90;;;;;;3108539;28;20169;-85
2024/01/30 02:50:24;;;;;;;5.35;4.85;;;8.00;99.90;;;;;;3106252;28;20049;-85
2024/01/30 02:51:56;;;;;;;5.97;5.43;;;8.00;99.90;;;;;;3110617;28;20084;-86
2024/01/30 02:53:27;;;;;;;5.07;4.30;;;8.20;99.90;;;;;;3097565;28;20497;-85
2024/01/30 02:54:58;;;;;;;9.57;5.43;;;;;;;;;;3088872;28;20034;-85
2024/01/30 02:56:29;;;;;;;5.95;5.35;;;8.10;99.90;;;;;;3081381;28;20027;-85
2024/01/30 02:57:59;;;;;;;6.22;5.22;;;8.20;99.90;;;;;;3089748;28;20395;-85
2024/01/30 02:59:33;;;;;;;5.72;5.25;;;8.10;99.90;;;;;;3085275;28;20178;-85
2024/01/30 03:01:04;;;;;;;5.40;4.93;;;8.30;99.90;;;;;;3106349;28;20109;-85
2024/01/30 03:02:35;;;;;;;5.88;4.45;;;8.40;99.90;;;;;;3085128;28;20077;-85
2024/01/30 03:04:06;;;;;;;5.93;4.63;;;;;;;;;;3085303;28;20030;-85
2024/01/30 03:05:37;;;;;;;6.78;4.95;;;8.40;99.90;;;;;;3101428;28;20029;-85
2024/01/30 03:07:08;;;;;;;7.25;5.10;;;8.40;99.90;;;;;;3097758;28;20089;-86
2024/01/30 03:08:39;;;;;;;8.05;5.72;;;8.40;99.90;;;;;;3113417;28;20458;-86
2024/01/30 03:10:10;;;;;;;5.35;4.45;;;8.50;99.90;;;;;;3111417;28;20038;-85
2024/01/30 03:11:41;;;;;;;10.35;4.80;;;8.50;99.90;;;;;;3107155;28;20026;-85
2024/01/30 03:13:12;;;;;;;5.47;4.93;;;8.50;99.90;;;;;;3099510;28;20034;-85
2024/01/30 03:14:42;;;;;;;4.93;4.53;;;8.50;99.90;;;;;;3094339;28;20043;-85
2024/01/30 03:16:13;;;;;;;6.40;5.60;;;8.60;99.90;;;;;;3097107;28;20056;-85
2024/01/30 03:17:44;;;;;;;6.00;4.20;;;8.60;99.90;;;;;;3091441;28;20029;-85
2024/01/30 03:19:15;;;;;;;5.22;4.82;;;;;;;;;;3095470;28;20178;-88
2024/01/30 03:20:46;;;;;;;5.85;5.25;;;8.60;99.90;;;;;;3115644;28;20500;-85
2024/01/30 03:22:17;;;;;;;5.78;4.78;;;8.60;99.90;;;;;;3098851;28;20034;-88
2024/01/30 03:23:48;;;;;;;8.20;5.22;;;8.50;99.90;;;;;;3109149;28;20057;-85
2024/01/30 03:25:19;;;;;;;6.28;4.88;;;8.40;99.90;;;;;;3103313;28;20034;-86
2024/01/30 03:26:50;;;;;;;5.22;4.43;;;8.40;99.90;;;;;;3119992;28;20632;-85
2024/01/30 03:28:21;;;;;;;5.63;5.07;;;8.40;99.90;;;;;;3116150;28;20022;-85
2024/01/30 03:29:52;;;;;;;5.93;5.32;;;8.40;99.90;;;;;;3099522;28;20029;-86
2024/01/30 03:31:24;;;;;;;8.13;4.95;;;8.40;99.90;;;;;;3103620;28;20399;-85
2024/01/30 03:32:54;;;;;;;8.18;5.75;;;8.40;99.90;;;;;;3099401;28;20037;-86
2024/01/30 03:34:25;;;;;;;8.02;5.38;;;8.50;99.90;;;;;;3106513;28;20569;-85
2024/01/30 03:35:56;;;;;;;5.07;4.68;;;8.60;99.90;;;;;;3095362;28;20105;-85
2024/01/30 03:37:27;;;;;;;3.72;3.42;;;8.70;99.90;;;;;;3095258;28;20042;-86
2024/01/30 03:38:57;;;;;;;4.30;3.90;;;8.90;99.90;;;;;;3091439;28;20026;-85
2024/01/30 03:40:28;;;;;;;5.57;5.00;;;8.90;99.90;;;;;;3094947;28;20038;-86
2024/01/30 03:41:59;;;;;;;7.88;5.10;;;8.90;99.90;;;;;;3099124;28;20073;-85
2024/01/30 03:43:30;;;;;;;5.07;4.28;;;8.90;99.90;;;;;;3099491;28;20026;-84
2024/01/30 03:45:02;;;;;;;7.90;5.07;;;8.90;99.90;;;;;;3098441;28;20030;-85
2024/01/30 03:46:33;;;;;;;7.00;5.68;;;8.90;99.90;;;;;;3103364;28;20418;-85
2024/01/30 03:48:04;;;;;;;7.18;5.47;;;8.90;99.90;;;;;;3107505;28;20121;-85
2024/01/30 03:49:35;;;;;;;5.95;4.80;;;8.90;99.90;;;;;;3098753;28;20431;-85
2024/01/30 03:51:05;;;;;;;4.35;3.95;;;9.00;99.90;;;;;;3079390;28;20042;-84
2024/01/30 03:52:36;;;;;;;4.53;4.15;;;9.00;99.90;;;;;;3105894;28;20041;-85
2024/01/30 03:54:07;;;;;;;4.93;4.53;;;9.10;99.90;;;;;;3090453;28;20155;-85
2024/01/30 03:55:38;;;;;;;5.15;4.47;;;9.10;99.90;;;;;;3107104;28;20546;-85
2024/01/30 03:57:08;;;;;;;5.50;5.00;;;9.10;99.90;;;;;;3083238;28;20121;-85
2024/01/30 03:58:39;;;;;;;5.53;5.07;;;9.10;99.90;;;;;;3098806;28;20022;-85
2024/01/30 04:00:11;;;;;;;5.20;4.57;;;9.20;99.90;;;;;;3111802;28;20112;-85
2024/01/30 04:01:46;;;;;;;4.90;4.50;;;9.10;99.90;;;;;;3111698;28;20569;-85
2024/01/30 04:03:17;;;;;;;6.68;3.75;;;9.10;99.90;;;;;;3098855;28;20038;-86
2024/01/30 04:04:48;;;;;;;5.13;4.65;;;9.10;99.90;;;;;;3101915;28;20132;-86
2024/01/30 04:06:19;;;;;;;4.18;3.80;;;9.00;99.90;;;;;;3086964;28;20035;-86
2024/01/30 04:07:50;;;;;;;5.05;4.65;;;9.00;99.90;;;;;;3074825;28;20384;-85
2024/01/30 04:09:20;;;;;;;6.93;4.57;;;9.00;99.90;;;;;;3090593;28;20084;-86
2024/01/30 04:10:51;;;;;;;5.82;4.40;;;9.00;99.90;;;;;;3094882;28;20396;-86
2024/01/30 04:12:22;;;;;;;4.53;4.00;;;9.00;99.90;;;;;;3094639;28;20090;-85
2024/01/30 04:13:53;;;;;;;3.78;3.33;;;9.10;99.90;;;;;;3098392;28;20040;-86
2024/01/30 04:15:24;;;;;;;4.95;4.55;;;9.10;99.90;;;;;;3097430;28;20030;-85
2024/01/30 04:16:55;;;;;;;7.43;5.65;;;9.10;99.90;;;;;;3091014;28;20051;-86
2024/01/30 04:18:27;;;;;;;4.18;3.55;;;9.10;99.90;;;;;;3106738;28;20022;-85
2024/01/30 04:19:58;;;;;;;4.93;4.32;;;9.10;99.90;;;;;;3111259;28;20041;-85
2024/01/30 04:21:29;;;;;;;5.72;4.65;;;9.10;99.90;;;;;;3098522;28;20031;-85
2024/01/30 04:23:00;;;;;;;5.63;4.03;;;9.10;99.90;;;;;;3107151;28;20029;-85
2024/01/30 04:24:31;;;;;;;5.93;4.75;;;9.10;99.90;;;;;;3085943;28;20035;-86
2024/01/30 04:26:02;;;;;;;6.85;5.53;;;9.10;99.90;;;;;;3103274;28;20037;-85
2024/01/30 04:27:33;;;;;;;8.30;4.95;;;9.10;99.90;;;;;;3098430;28;20112;-86
2024/01/30 04:29:04;;;;;;;3.75;3.17;;;9.00;99.90;;;;;;3111121;28;20053;-85
2024/01/30 04:30:35;;;;;;;5.68;5.03;;;;;;;;;;3086468;28;20507;-85
2024/01/30 04:32:06;;;;;;;6.07;4.07;;;9.10;99.90;;;;;;3090827;28;20030;-85
2024/01/30 04:33:37;;;;;;;5.30;4.50;;;9.20;99.90;;;;;;3094288;28;20061;-85
2024/01/30 04:35:08;;;;;;;4.85;4.35;;;9.20;99.90;;;;;;3098928;28;20049;-86
2024/01/30 04:36:39;;;;;;;3.95;3.47;;;9.20;99.90;;;;;;3094646;28;20112;-85
2024/01/30 04:38:09;;;;;;;3.47;3.17;;;9.20;99.90;;;;;;3112793;28;20025;-85
2024/01/30 04:39:40;;;;;;;6.55;4.65;;;9.30;99.90;;;;;;3110783;28;20033;-85
2024/01/30 04:41:12;;;;;;;3.85;3.47;;;;;;;;;;3094640;28;20030;-85
2024/01/30 04:42:42;;;;;;;4.82;4.13;;;9.30;99.90;;;;;;3102446;28;20457;-85
2024/01/30 04:44:13;;;;;;;8.15;3.97;;;9.40;99.90;;;;;;3105680;28;20026;-86
2024/01/30 04:45:45;;;;;;;3.72;3.33;;;9.40;99.90;;;;;;3095442;28;20026;-85
2024/01/30 04:47:16;;;;;;;5.85;4.25;;;9.40;99.90;;;;;;3086692;28;20063;-85
2024/01/30 04:48:47;;;;;;;5.68;5.13;;;9.30;99.90;;;;;;3105464;28;20042;-85
2024/01/30 04:50:18;;;;;;;4.93;4.40;;;9.30;99.90;;;;;;3098685;28;20042;-85
2024/01/30 04:51:49;;;;;;;7.53;4.80;;;;;;;;;;3094488;28;20027;-85
2024/01/30 04:53:20;;;;;;;3.58;3.20;;;9.40;99.90;;;;;;3094689;28;20073;-88
2024/01/30 04:54:51;;;;;;;4.13;3.58;;;9.50;99.90;;;;;;3072058;28;20031;-85
2024/01/30 04:56:21;;;;;;;4.20;3.10;;;9.50;99.90;;;;;;3090329;28;20034;-87
2024/01/30 04:57:52;;;;;;;4.35;3.83;;;9.50;99.90;;;;;;3096125;28;20027;-85
2024/01/30 04:59:23;;;;;;;5.30;3.50;;;9.50;99.90;;;;;;3094206;28;20049;-89
2024/01/30 05:00:54;;;;;;;6.05;3.95;;;9.50;99.90;;;;;;3102455;28;20034;-87
2024/01/30 05:02:24;;;;;;;5.38;4.22;;;9.60;99.90;;;;;;3118228;28;20065;-85
2024/01/30 05:03:55;;;;;;;3.50;3.25;;;9.60;99.90;;;;;;3097993;28;20128;-87
2024/01/30 05:05:27;;;;;;;4.85;3.20;;;9.60;99.90;;;;;;3106067;28;20044;-88
2024/01/30 05:06:57;;;;;;;3.30;3.10;;;9.50;99.90;;;;;;3098552;28;20028;-85
2024/01/30 05:08:29;;;;;;;5.95;3.63;;;9.50;99.90;;;;;;3088272;28;20069;-85
2024/01/30 05:10:00;;;;;;;3.67;3.33;;;9.60;99.90;;;;;;3094691;28;20038;-85
2024/01/30 05:11:31;;;;;;;5.97;4.38;;;9.60;99.90;;;;;;3093875;28;20561;-85
2024/01/30 05:13:02;;;;;;;3.22;2.97;;;;;;;;;;3102526;28;20050;-85
2024/01/30 05:14:33;;;;;;;6.03;3.92;;;9.50;99.90;;;;;;3105236;28;20035;-85
2024/01/30 05:16:04;;;;;;;3.83;3.53;;;9.60;99.90;;;;;;3094826;28;20022;-85
2024/01/30 05:17:35;;;;;;;10.65;4.28;;;9.50;99.90;;;;;;3098485;28;20645;-85
2024/01/30 05:19:05;;;;;;;4.25;3.88;;;9.50;99.90;;;;;;3111053;28;20029;-86
2024/01/30 05:20:36;;;;;;;4.70;4.40;;;9.50;99.90;;;;;;3106160;28;20057;-85
2024/01/30 05:22:07;;;;;;;4.22;3.40;;;9.50;99.90;;;;;;3098318;28;20081;-85
2024/01/30 05:23:38;;;;;;;6.35;3.60;;;9.60;99.90;;;;;;3105067;28;20049;-86
2024/01/30 05:25:09;;;;;;;3.38;3.13;;;9.60;99.90;;;;;;3094387;28;20030;-88
2024/01/30 05:26:40;;;;;;;4.72;4.07;;;9.60;99.90;;;;;;3114319;28;20079;-85
2024/01/30 05:28:10;;;;;;;5.30;4.30;;;9.60;99.90;;;;;;3098252;28;20026;-85
2024/01/30 05:29:41;;;;;;;3.67;3.42;;;9.50;99.90;;;;;;3102763;28;20113;-85
2024/01/30 05:31:12;;;;;;;4.63;3.88;;;9.70;99.90;;;;;;3094945;28;20034;-85
2024/01/30 05:32:43;;;;;;;7.25;4.07;;;9.70;99.90;;;;;;3093562;28;20057;-85
2024/01/30 05:34:14;;;;;;;5.57;4.53;;;9.80;99.90;;;;;;3088932;28;20022;-85
2024/01/30 05:35:45;;;;;;;6.53;5.35;;;9.80;99.90;;;;;;3116114;28;20021;-85
2024/01/30 05:37:17;;;;;;;6.18;5.35;;;9.70;99.90;;;;;;3117174;28;20030;-85
2024/01/30 05:38:48;;;;;;;8.90;4.50;;;9.70;99.90;;;;;;3085085;28;20070;-87
2024/01/30 05:40:19;;;;;;;5.57;5.03;;;9.70;99.90;;;;;;3097849;28;20080;-87
2024/01/30 05:41:50;;;;;;;3.63;3.22;;;9.70;99.90;;;;;;3100027;28;20038;-85
2024/01/30 05:43:20;;;;;;;5.38;3.70;;;9.70;99.90;;;;;;3082324;28;20037;-86
2024/01/30 05:44:51;;;;;;;3.75;3.22;;;9.70;99.90;;;;;;3112557;28;20033;-88
2024/01/30 05:46:22;;;;;;;4.55;4.25;;;9.60;99.90;;;;;;3118825;28;20078;-87
2024/01/30 05:47:53;;;;;;;3.60;3.30;;;9.70;99.90;;;;;;3093452;28;20042;-91
2024/01/30 05:49:24;;;;;;;3.53;3.22;;;9.70;99.90;;;;;;3103822;28;20003;-92
2024/01/30 05:50:55;;;;;;;4.38;3.97;;;9.70;99.90;;;;;;3110178;28;20010;-91
2024/01/30 05:52:26;;;;;;;4.07;3.78;;;9.70;99.90;;;;;;3133110;28;20014;-92
2024/01/30 05:53:57;;;;;;;5.07;4.63;;;9.80;99.90;;;;;;3110983;28;20041;-91
2024/01/30 05:55:27;;;;;;;4.28;3.90;;;9.80;99.90;;;;;;3104335;28;20087;-93
2024/01/30 05:56:58;;;;;;;4.68;4.28;;;9.90;99.90;;;;;;3101137;28;20015;-89
2024/01/30 05:58:30;;;;;;;5.30;3.58;;;9.90;99.90;;;;;;3107170;28;20007;-92
2024/01/30 06:00:02;;;;;;;4.68;4.25;;;9.90;99.90;;;;;;3120740;28;20032;-88
2024/01/30 06:01:35;;;;;;;4.93;4.43;;;9.90;99.90;;;;;;3121886;28;20014;-89
2024/01/30 06:03:07;;;;;;;4.45;4.05;;;9.90;99.90;;;;;;3125489;28;20021;-87
2024/01/30 06:04:38;;;;;;;8.25;4.30;;;9.90;99.90;;;;;;3110699;28;20038;-89
2024/01/30 06:06:09;;;;;;;6.20;4.78;;;9.90;99.90;;;;;;3108307;28;20018;-89
2024/01/30 06:07:40;;;;;;;6.43;4.32;;;9.90;99.90;;;;;;3091669;28;20027;-85
2024/01/30 06:09:12;;;;;;;4.20;3.25;;;9.90;99.90;;;;;;3110049;28;20060;-87
2024/01/30 06:10:43;;;;;;;4.60;4.20;;;9.90;99.90;;;;;;3114598;28;20037;-86
2024/01/30 06:12:14;;;;;;;5.18;4.53;;;9.90;99.90;;;;;;3107336;28;20528;-86
2024/01/30 06:13:45;;;;;;;3.97;3.53;;;9.90;99.90;;;;;;3094862;28;20025;-86
2024/01/30 06:15:16;;;;;;;4.00;3.55;;;9.90;99.90;;;;;;3102955;28;20026;-85
2024/01/30 06:16:46;;;;;;;3.78;3.47;;;9.90;99.90;;;;;;3094379;28;20124;-86
2024/01/30 06:18:17;;;;;;;4.40;3.22;;;9.90;99.90;;;;;;3102346;28;20125;-87
2024/01/30 06:19:48;;;;;;;4.53;3.75;;;9.90;99.90;;;;;;3098493;28;20113;-86
2024/01/30 06:21:19;;;;;;;4.93;4.32;;;9.90;99.90;;;;;;3094530;28;20038;-86
2024/01/30 06:22:50;;;;;;;4.32;3.95;;;9.90;99.90;;;;;;3098919;28;20072;-87
2024/01/30 06:24:21;;;;;;;5.65;4.40;;;9.90;99.90;;;;;;3112019;28;20472;-86
2024/01/30 06:25:52;;;;;;;6.15;4.88;;;9.90;99.90;;;;;;3097733;28;20038;-86
2024/01/30 06:27:23;;;;;;;4.13;3.83;;;9.80;99.90;;;;;;3086356;28;20369;-86
2024/01/30 06:28:54;;;;;;;4.25;3.92;;;9.90;99.90;;;;;;3078345;28;20037;-86
2024/01/30 06:30:25;;;;;;;4.90;4.50;;;9.90;99.90;;;;;;3094294;28;20030;-86
2024/01/30 06:31:57;;;;;;;4.05;3.70;;;9.90;99.90;;;;;;3096911;28;20073;-86
2024/01/30 06:33:27;;;;;;;4.45;4.05;;;9.90;99.90;;;;;;3094045;28;20043;-86
2024/01/30 06:34:58;;;;;;;6.88;4.35;;;9.90;99.90;;;;;;3101024;28;20026;-85
2024/01/30 06:36:29;;;;;;;4.00;3.70;;;9.90;99.90;;;;;;3094167;28;20045;-86
2024/01/30 06:38:00;;;;;;;3.63;3.33;;;9.90;99.90;;;;;;3093918;28;20031;-86
2024/01/30 06:39:30;;;;;;;5.28;3.95;;;9.90;99.90;;;;;;3102186;28;20026;-86
2024/01/30 06:41:01;;;;;;;5.72;3.78;;;9.90;99.90;;;;;;3105876;28;20034;-86
2024/01/30 06:42:32;;;;;;;3.75;3.45;;;9.90;99.90;;;;;;3105617;28;20022;-87
2024/01/30 06:44:08;;;;;;;4.88;4.43;;;9.90;99.90;;;;;;3107389;28;20553;-86
2024/01/30 06:45:39;;;;;;;4.38;3.90;;;9.90;99.90;;;;;;3085171;28;20034;-85
2024/01/30 06:47:10;;;;;;;4.03;3.33;;;9.90;99.90;;;;;;3116202;28;20109;-86
2024/01/30 06:48:41;;;;;;;4.72;3.75;;;9.80;99.90;;;;;;3116511;28;20030;-85
2024/01/30 06:50:12;;;;;;;6.15;5.28;;;9.90;99.90;;;;;;3088234;28;20038;-85
2024/01/30 06:51:43;;;;;;;4.13;3.70;;;9.80;99.90;;;;;;3100256;28;20029;-86
2024/01/30 06:53:14;;;;;;;4.97;3.78;;;9.80;99.90;;;;;;3108632;28;20038;-85
2024/01/30 06:54:45;;;;;;;4.38;3.97;;;9.80;99.90;;;;;;3106960;28;20065;-86
2024/01/30 06:56:20;;;;;;;4.07;3.67;;;9.80;99.90;;;;;;3108011;28;20037;-86
2024/01/30 06:57:51;;;;;;;5.47;5.00;;;9.80;99.90;;;;;;3108383;28;20266;-86
2024/01/30 06:59:22;;;;;;;10.70;5.15;;;9.80;99.90;;;;;;3108173;28;20029;-85
2024/01/30 07:00:53;;;;;;;5.85;4.63;;;9.80;99.90;;;;;;3107666;28;20037;-86
2024/01/30 07:02:24;;;;;;;5.82;5.25;;;9.80;99.90;;;;;;3119963;28;20071;-85
2024/01/30 07:03:55;;;;;;;5.07;4.68;;;9.80;99.90;;;;;;3084271;28;20078;-86
2024/01/30 07:05:26;;;;;;;5.45;4.95;;;9.80;99.90;;;;;;3099544;28;20446;-88
2024/01/30 07:06:57;;;;;;;4.32;4.03;;;9.80;99.90;;;;;;3107228;28;20034;-85
2024/01/30 07:08:28;;;;;;;4.32;3.92;;;9.80;99.90;;;;;;3107724;28;20111;-86
2024/01/30 07:09:59;;;;;;;4.43;4.07;;;8.40;99.90;;;;;;3094932;28;20038;-86
2024/01/30 07:11:29;;;;;;;5.00;4.35;;;9.80;99.90;;;;;;3103452;28;20033;-86
2024/01/30 07:13:01;;;;;;;7.75;7.15;;;9.90;99.90;;;;;;3088906;28;20034;-85
2024/01/30 07:14:31;;;;;;;5.93;4.63;;;9.90;99.90;;;;;;3093982;28;20105;-90
2024/01/30 07:16:03;;;;;;;10.05;6.97;;;9.90;99.90;;;;;;3091490;28;20034;-86
2024/01/30 07:17:34;;;;;;;7.68;4.80;;;9.90;99.90;;;;;;3100130;28;20027;-89
2024/01/30 07:19:05;;;;;;;7.30;5.00;;;9.90;99.90;;;;;;3103457;28;20018;-86
2024/01/30 07:20:36;;;;;;;6.43;4.97;;;9.90;99.90;;;;;;3103351;28;20040;-86
2024/01/30 07:22:07;;;;;;;7.80;6.35;;;9.90;99.90;;;;;;3083417;28;20042;-87
2024/01/30 07:23:41;;;;;;;4.95;4.57;;;9.90;99.90;;;;;;3087520;28;20037;-90
2024/01/30 07:25:12;;;;;;;11.38;9.95;;;9.80;99.90;;;;;;3087583;28;20080;-86
2024/01/30 07:26:43;;;;;;;8.02;7.28;;;9.90;99.90;;;;;;3103884;28;20033;-86
2024/01/30 07:28:16;;;;;;;7.85;6.63;;;9.80;99.90;;;;;;3119425;28;20033;-86
2024/01/30 07:29:47;;;;;;;12.32;9.32;;;9.90;99.90;;;;;;3111308;28;20045;-87
2024/01/30 07:31:20;;;;;;;6.53;5.75;;;9.90;99.90;;;;;;3103073;28;20613;-86
2024/01/30 07:32:51;;;;;;;6.30;4.07;;;9.90;99.90;;;;;;3091551;28;20635;-89
2024/01/30 07:34:22;;;;;;;12.25;9.25;;;9.90;99.90;;;;;;3091730;28;20062;-87
2024/01/30 07:35:53;;;;;;;21.15;16.70;;;10.00;99.90;;;;;;3103282;28;20471;-87
2024/01/30 07:37:24;;;;;;;5.00;4.35;;;10.00;99.90;;;;;;3107335;28;20029;-86
2024/01/30 07:38:55;;;;;;;11.13;9.80;;;10.00;99.90;;;;;;3095138;28;20498;-86
2024/01/30 07:40:26;;;;;;;25.60;18.52;;;10.00;99.90;;;;;;3096004;28;20047;-87
2024/01/30 07:41:56;;;;;;;6.78;6.03;;;10.10;99.90;;;;;;3094878;28;20109;-86
2024/01/30 07:43:27;;;;;;;5.38;4.88;;;10.00;99.90;;;;;;3115782;28;20038;-86
2024/01/30 07:45:00;;;;;;;10.20;6.18;;;10.10;99.90;;;;;;3088504;28;20039;-86
2024/01/30 07:46:31;;;;;;;8.13;7.32;;;10.00;99.90;;;;;;3103695;28;20030;-86
2024/01/30 07:48:02;;;;;;;7.70;5.97;;;10.00;99.90;;;;;;3110669;28;20109;-87
2024/01/30 07:49:33;;;;;;;8.95;6.82;;;9.90;99.90;;;;;;3106085;28;20026;-90
2024/01/30 07:51:03;;;;;;;4.95;4.07;;;9.90;99.90;;;;;;3104371;28;20109;-86
2024/01/30 07:52:34;;;;;;;34.67;25.38;;;9.90;99.90;;;;;;3110914;28;20064;-89
2024/01/30 07:54:15;;;;;;;5.60;4.95;;;9.90;99.90;;;;;;3105766;28;20029;-87
2024/01/30 07:55:49;;;;;;;5.97;5.43;;;9.90;99.90;;;;;;3109393;28;20037;-87
2024/01/30 07:57:20;;;;;;;10.18;6.15;;;9.90;99.90;;;;;;3102856;28;20073;-86
2024/01/30 07:58:53;;;;;;;16.30;12.65;;;9.90;99.90;;;;;;3094860;28;20038;-89
2024/01/30 08:00:23;;;;;;;14.05;7.55;;;9.90;99.90;;;;;;3110676;28;20054;-87
2024/01/30 08:01:54;;;;;;;5.72;4.63;;;9.90;99.90;;;;;;3098898;28;20165;-86